Time;durP1;ratioP1;P1;durP2;ratioP2;P2;SDS_P1;SDS_P2;PMS_P1;PMS_P2;Temp;Humidity;BMP_temperature;BMP_pressure;BME280_temperature;BME280_humidity;BME280_pressure;Samples;Min_cycle;Max_cycle;Signal;HPM_P1;HPM_P2
2022/07/04 00:02:06;;;;;;;4.03;2.28;;;;;;;14.44;81.57;101914.69;5098390;28;20160;-60
2022/07/04 00:04:31;;;;;;;4.43;2.67;;;;;;;14.48;81.56;101920.78;5097874;28;20498;-60
2022/07/04 00:06:57;;;;;;;5.57;2.58;;;;;;;14.46;81.35;101920.81;5097840;28;20032;-60
2022/07/04 00:09:22;;;;;;;7.40;2.65;;;;;;;14.38;81.55;101912.09;5098087;28;20032;-60
2022/07/04 00:11:47;;;;;;;4.50;2.95;;;;;;;14.43;82.21;101917.34;5097749;28;20020;-61
2022/07/04 00:14:12;;;;;;;3.60;2.58;;;;;;;14.40;82.32;101917.34;5097924;28;20027;-61
2022/07/04 00:16:38;;;;;;;6.30;2.60;;;;;;;14.35;82.42;101914.78;5097992;28;20112;-61
2022/07/04 00:19:03;;;;;;;6.35;3.00;;;;;;;14.35;82.71;101906.88;5097758;28;20047;-61
2022/07/04 00:21:28;;;;;;;3.97;2.80;;;;;;;14.28;83.01;101911.34;5098224;28;20078;-60
2022/07/04 00:23:54;;;;;;;4.22;2.80;;;;;;;14.28;82.88;101907.81;5097761;28;20024;-61
2022/07/04 00:26:19;;;;;;;4.10;2.75;;;;;;;14.25;83.69;101905.22;5097702;28;20082;-61
2022/07/04 00:28:44;;;;;;;5.03;2.80;;;;;;;14.13;83.16;101889.56;5097590;28;20060;-60
2022/07/04 00:31:10;;;;;;;3.58;2.47;;;;;;;14.21;82.63;101908.78;5097648;28;20102;-60
2022/07/04 00:33:35;;;;;;;6.53;2.63;;;;;;;14.18;82.91;101917.59;5097519;28;20046;-61
2022/07/04 00:36:00;;;;;;;4.28;2.78;;;;;;;14.15;83.96;101909.75;5097740;28;20055;-60
2022/07/04 00:38:26;;;;;;;3.58;2.42;;;;;;;14.12;84.11;101907.13;5097476;28;20038;-60
2022/07/04 00:40:51;;;;;;;4.50;2.92;;;;;;;14.10;83.27;101914.16;5097280;28;20028;-61
2022/07/04 00:43:25;;;;;;;5.20;2.85;;;;;;;14.06;83.74;101917.72;5097389;28;20039;-60
2022/07/04 00:45:50;;;;;;;6.85;3.40;;;;;;;14.09;82.98;101904.53;5097767;28;20028;-60
2022/07/04 00:48:15;;;;;;;4.82;3.08;;;;;;;14.09;83.38;101916.81;5097135;28;20477;-60
2022/07/04 00:50:48;;;;;;;5.43;3.00;;;;;;;14.08;83.14;101905.41;5095911;28;20362;-60
2022/07/04 00:53:21;;;;;;;5.18;2.90;;;;;;;14.02;83.97;101905.50;5097198;28;20364;-60
2022/07/04 00:55:46;;;;;;;5.15;2.83;;;;;;;14.01;84.20;101909.03;5096973;28;20163;-60
2022/07/04 00:58:12;;;;;;;4.47;2.85;;;;;;;13.97;83.30;101909.94;5097368;28;20115;-60
2022/07/04 01:00:38;;;;;;;4.47;3.15;;;;;;;13.95;83.58;101911.69;5096795;28;20036;-60
2022/07/04 01:03:04;;;;;;;4.80;2.85;;;;;;;13.88;84.38;101910.00;5097012;28;20036;-59
2022/07/04 01:05:29;;;;;;;6.68;3.30;;;;;;;13.86;83.56;101909.16;5097193;28;20038;-60
2022/07/04 01:07:54;;;;;;;5.40;3.45;;;;;;;13.88;83.37;101903.00;5096964;28;20032;-60
2022/07/04 01:10:20;;;;;;;6.72;3.00;;;;;;;13.87;83.19;101901.25;5096886;28;20119;-60
2022/07/04 01:12:45;;;;;;;8.02;3.30;;;;;;;13.74;82.82;101882.97;5096685;28;20114;-61
2022/07/04 01:15:10;;;;;;;5.53;3.22;;;;;;;13.77;84.03;101898.72;5096892;28;20068;-60
2022/07/04 01:17:36;;;;;;;6.03;3.03;;;;;;;13.75;84.52;101895.25;5096814;28;20047;-60
2022/07/04 01:20:02;;;;;;;5.90;3.30;;;;;;;13.71;84.83;101893.50;5096367;28;20400;-60
2022/07/04 01:22:27;;;;;;;6.72;3.15;;;;;;;13.74;83.50;101893.50;5096788;28;20038;-60
2022/07/04 01:24:52;;;;;;;8.10;3.30;;;;;;;13.64;83.20;101884.81;5096399;28;20032;-59
2022/07/04 01:27:20;;;;;;;6.53;3.20;;;;;;;13.67;83.22;101882.19;5096653;28;20343;-61
2022/07/04 01:29:46;;;;;;;6.72;3.25;;;;;;;13.71;83.88;101881.25;5096552;28;20039;-60
2022/07/04 01:32:12;;;;;;;5.20;3.35;;;;;;;13.71;83.70;101881.25;5096448;28;20056;-61
2022/07/04 01:34:38;;;;;;;5.78;3.10;;;;;;;13.60;84.55;101880.47;5096571;28;20053;-61
2022/07/04 01:37:04;;;;;;;3.78;3.10;;;;;;;13.53;85.01;101878.78;5096159;28;20036;-60
2022/07/04 01:39:29;;;;;;;8.20;3.50;;;;;;;13.55;84.29;101872.63;5096216;28;20036;-61
2022/07/04 01:41:55;;;;;;;8.57;3.63;;;;;;;13.56;84.63;101870.88;5096450;28;20348;-61
2022/07/04 01:44:21;;;;;;;7.30;3.60;;;;;;;13.55;83.83;101870.00;5096071;28;20121;-60
2022/07/04 01:46:47;;;;;;;4.47;3.25;;;;;;;13.47;85.22;101853.44;5096063;28;20087;-61
2022/07/04 01:49:12;;;;;;;6.07;3.30;;;;;;;13.47;85.27;101858.69;5095859;28;20040;-61
2022/07/04 01:51:48;;;;;;;6.88;3.08;;;;;;;13.49;85.41;101866.56;5096031;28;20040;-60
2022/07/04 01:54:14;;;;;;;5.63;3.50;;;;;;;13.41;85.72;101861.38;5095968;28;20066;-60
2022/07/04 01:56:40;;;;;;;5.05;3.30;;;;;;;13.37;85.81;101862.25;5095962;28;20129;-61
2022/07/04 01:59:05;;;;;;;9.98;3.90;;;;;;;13.39;85.36;101863.13;5095999;28;20028;-61
2022/07/04 02:01:31;;;;;;;7.65;3.65;;;;;;;13.35;85.89;101858.78;5095612;28;20043;-61
2022/07/04 02:04:01;;;;;;;5.28;3.50;;;;;;;13.29;86.45;101855.34;5095740;28;20040;-60
2022/07/04 02:06:27;;;;;;;4.80;3.40;;;;;;;13.23;86.32;101854.50;5095902;28;20031;-60
2022/07/04 02:14:21;;;;;;;6.28;3.75;;;;;;;13.29;86.26;101857.97;5095387;28;20039;-61
2022/07/04 02:16:46;;;;;;;6.13;3.65;;;;;;;13.14;86.59;101837.91;5095660;28;20419;-61
2022/07/04 02:19:11;;;;;;;7.90;3.72;;;;;;;13.23;86.84;101859.75;5095645;28;20415;-61
2022/07/04 02:21:36;;;;;;;6.38;3.65;;;;;;;13.22;86.68;101854.50;5095690;28;20032;-61
2022/07/04 02:24:02;;;;;;;5.40;3.20;;;;;;;13.20;86.96;101853.66;5095507;28;20477;-62
2022/07/04 02:26:27;;;;;;;5.03;3.22;;;;;;;13.19;86.73;101860.66;5095386;28;20031;-60
2022/07/04 02:28:52;;;;;;;8.20;3.50;;;;;;;13.14;87.26;101857.19;5095651;28;20386;-60
2022/07/04 02:31:18;;;;;;;9.35;3.60;;;;;;;13.08;87.07;101857.22;5094930;28;20103;-60
2022/07/04 02:33:43;;;;;;;5.90;3.53;;;;;;;13.09;87.22;101864.22;5095311;28;20061;-60
2022/07/04 02:36:08;;;;;;;4.72;3.60;;;;;;;13.09;87.83;101871.22;5095392;28;20085;-60
2022/07/04 02:38:34;;;;;;;5.00;3.78;;;;;;;13.04;87.55;101871.25;5095293;28;20024;-61
2022/07/04 02:40:59;;;;;;;6.97;4.10;;;;;;;13.06;87.66;101881.75;5095342;28;20058;-60
2022/07/04 02:43:24;;;;;;;6.38;3.70;;;;;;;13.03;87.65;101873.88;5095350;28;20027;-60
2022/07/04 02:45:50;;;;;;;6.45;3.78;;;;;;;13.02;87.93;101872.16;5094872;28;20432;-60
2022/07/04 02:48:15;;;;;;;7.10;3.60;;;;;;;12.99;88.24;101866.94;5095369;28;20060;-60
2022/07/04 02:50:40;;;;;;;5.50;3.88;;;;;;;12.86;87.70;101853.88;5094857;28;20031;-60
2022/07/04 02:53:06;;;;;;;7.15;4.03;;;;;;;12.97;87.88;101876.59;5095049;28;20359;-60
2022/07/04 02:55:31;;;;;;;7.90;3.97;;;;;;;12.99;87.99;101862.53;5094942;28;20035;-60
2022/07/04 02:57:56;;;;;;;7.93;4.30;;;;;;;12.96;88.26;101865.19;5095024;28;20039;-60
2022/07/04 03:00:21;;;;;;;7.50;4.22;;;;;;;12.95;88.27;101878.34;5094748;28;20557;-60
2022/07/04 03:02:47;;;;;;;6.43;4.20;;;;;;;12.94;88.36;101881.84;5094951;28;20028;-60
2022/07/04 03:05:12;;;;;;;6.90;4.00;;;;;;;12.87;88.97;101874.00;5094802;28;20032;-60
2022/07/04 03:07:37;;;;;;;4.75;4.07;;;;;;;12.91;88.88;101882.75;5094870;28;20068;-59
2022/07/04 03:10:03;;;;;;;7.22;4.60;;;;;;;12.83;89.17;101888.03;5094738;28;20024;-60
2022/07/04 03:12:28;;;;;;;7.32;3.90;;;;;;;12.77;89.14;101874.06;5094653;28;20081;-59
2022/07/04 03:14:54;;;;;;;6.50;4.22;;;;;;;12.88;89.15;101898.50;5097944;28;20034;-61
2022/07/04 03:17:19;;;;;;;6.43;4.32;;;;;;;12.83;89.06;101898.53;5098726;28;20036;-59
2022/07/04 03:19:45;;;;;;;6.88;4.30;;;;;;;12.82;89.52;101898.53;5099120;28;20114;-60
2022/07/04 03:22:10;;;;;;;5.50;3.85;;;;;;;12.85;89.20;101899.41;5098986;28;20024;-61
2022/07/04 03:24:35;;;;;;;6.47;4.32;;;;;;;12.90;88.94;101909.91;5098772;28;20092;-60
2022/07/04 03:27:01;;;;;;;6.85;4.15;;;;;;;12.88;89.39;101901.16;5098603;28;20047;-60
2022/07/04 03:29:26;;;;;;;10.10;4.57;;;;;;;12.84;89.20;101899.41;5098638;28;20042;-59
2022/07/04 03:31:52;;;;;;;5.20;3.97;;;;;;;12.83;89.81;101901.16;5098639;28;20052;-60
2022/07/04 03:34:17;;;;;;;5.70;4.18;;;;;;;12.80;90.15;101909.09;5098970;28;20028;-59
2022/07/04 03:36:42;;;;;;;8.40;4.50;;;;;;;12.86;90.00;101913.41;5098743;28;20103;-59
2022/07/04 03:39:08;;;;;;;6.65;4.10;;;;;;;12.89;89.72;101909.03;5098102;28;20027;-61
2022/07/04 03:41:33;;;;;;;5.97;4.25;;;;;;;12.89;90.46;101911.66;5098771;28;20036;-60
2022/07/04 03:43:58;;;;;;;7.00;4.25;;;;;;;12.91;90.80;101914.25;5098461;28;20034;-60
2022/07/04 03:46:24;;;;;;;7.03;4.25;;;;;;;12.91;90.57;101922.16;5098341;28;20112;-59
2022/07/04 03:48:49;;;;;;;9.13;4.72;;;;;;;12.92;90.47;101930.91;5098476;28;20039;-60
2022/07/04 03:51:15;;;;;;;8.77;4.47;;;;;;;12.89;90.16;101929.16;5098383;28;20161;-60
2022/07/04 03:53:41;;;;;;;8.20;4.65;;;;;;;12.94;90.40;101932.66;5098435;28;20085;-60
2022/07/04 03:56:07;;;;;;;7.03;4.78;;;;;;;12.94;90.52;101931.78;5098412;28;20031;-61
2022/07/04 03:58:32;;;;;;;9.10;4.72;;;;;;;13.01;90.59;101926.44;5098215;28;20035;-60
2022/07/04 04:00:58;;;;;;;6.18;4.82;;;;;;;13.01;90.42;101928.22;5098479;28;20036;-60
2022/07/04 04:06:07;;;;;;;9.50;5.00;;;;;;;13.03;90.64;101939.59;5098655;28;20043;-60
2022/07/04 04:08:32;;;;;;;10.45;4.47;;;;;;;13.08;90.34;101941.31;5098038;28;20031;-60
2022/07/04 04:10:58;;;;;;;6.35;5.15;;;;;;;13.10;90.39;101934.28;5098078;28;20089;-60
2022/07/04 04:13:23;;;;;;;7.65;4.72;;;;;;;13.13;90.29;101939.53;5097914;28;20032;-60
2022/07/04 04:15:48;;;;;;;7.53;5.13;;;;;;;13.15;90.49;101934.31;5098044;28;20371;-60
2022/07/04 04:18:14;;;;;;;6.53;4.88;;;;;;;13.15;90.40;101929.06;5097904;28;20107;-60
2022/07/04 04:20:39;;;;;;;7.97;5.10;;;;;;;13.15;90.53;101932.56;5097729;28;20366;-60
2022/07/04 04:23:04;;;;;;;9.65;5.10;;;;;;;13.22;90.22;101947.38;5097952;28;20035;-61
2022/07/04 04:25:29;;;;;;;8.15;5.03;;;;;;;13.26;90.16;101945.63;5097199;28;20101;-60
2022/07/04 04:27:55;;;;;;;9.30;4.80;;;;;;;13.21;89.97;101929.88;5097849;28;20110;-60
2022/07/04 04:30:20;;;;;;;8.60;5.18;;;;;;;13.35;89.73;101953.41;5097571;28;20028;-60
2022/07/04 04:32:45;;;;;;;8.00;4.28;;;;;;;13.38;89.46;101958.66;5097979;28;20196;-60
2022/07/04 04:35:10;;;;;;;12.65;5.03;;;;;;;13.41;89.50;101963.91;5097590;28;20351;-60
2022/07/04 04:37:36;;;;;;;8.02;5.07;;;;;;;13.38;89.74;101963.03;5097695;28;20031;-60
2022/07/04 04:40:01;;;;;;;7.80;5.10;;;;;;;13.39;90.04;101963.03;5097877;28;20116;-61
2022/07/04 04:42:26;;;;;;;8.07;4.85;;;;;;;13.44;90.01;101963.88;5097305;28;20420;-60
2022/07/04 04:44:52;;;;;;;9.75;5.35;;;;;;;13.46;90.55;101953.38;5097326;28;20057;-60
2022/07/04 04:47:17;;;;;;;9.98;5.50;;;;;;;13.51;90.27;101955.06;5100173;28;20032;-60
2022/07/04 04:49:42;;;;;;;7.80;5.40;;;;;;;13.51;90.54;101951.53;5105147;28;20024;-60
2022/07/04 04:52:08;;;;;;;8.10;4.82;;;;;;;13.57;90.31;101949.75;5097350;28;20043;-60
2022/07/04 04:54:34;;;;;;;8.93;4.80;;;;;;;13.58;90.52;101940.97;5097297;28;20115;-57
2022/07/04 04:56:59;;;;;;;7.53;4.30;;;;;;;13.59;90.95;101945.34;5097057;28;20447;-57
2022/07/04 04:59:25;;;;;;;7.97;4.72;;;;;;;13.55;91.04;101935.75;5097288;28;20075;-60
2022/07/04 05:01:50;;;;;;;8.57;4.63;;;;;;;13.64;91.15;101940.06;5097257;28;20064;-60
2022/07/04 05:04:15;;;;;;;11.68;4.78;;;;;;;13.64;91.23;101936.56;5096965;28;20036;-59
2022/07/04 05:06:41;;;;;;;9.13;4.90;;;;;;;13.74;90.82;101932.94;5096980;28;20024;-59
2022/07/04 05:09:06;;;;;;;8.48;5.28;;;;;;;13.75;90.64;101932.94;5101652;28;20071;-59
2022/07/04 05:11:31;;;;;;;11.55;5.50;;;;;;;13.79;91.41;101929.41;5104864;28;20093;-59
2022/07/04 05:13:57;;;;;;;8.48;5.28;;;;;;;13.83;91.68;101935.50;5099289;28;20490;-59
2022/07/04 05:16:22;;;;;;;8.15;5.05;;;;;;;13.85;91.23;101931.13;5096709;28;20364;-60
2022/07/04 05:18:47;;;;;;;8.20;5.10;;;;;;;13.91;91.10;101941.56;5106233;28;20028;-59
2022/07/04 05:21:12;;;;;;;11.70;5.18;;;;;;;13.94;91.41;101931.88;5103195;28;20491;-59
2022/07/04 05:23:38;;;;;;;12.70;4.85;;;;;;;13.96;91.34;101925.75;5107092;28;20110;-59
2022/07/04 05:26:03;;;;;;;9.90;5.10;;;;;;;14.06;91.48;101938.78;5108012;28;20426;-59
2022/07/04 05:28:29;;;;;;;9.57;4.78;;;;;;;14.10;91.26;101932.59;5099094;28;20097;-59
2022/07/04 05:30:54;;;;;;;10.82;5.28;;;;;;;14.16;90.68;101929.91;5098972;28;20052;-59
2022/07/04 05:33:19;;;;;;;15.27;5.90;;;;;;;14.17;91.24;101930.78;5096307;28;20060;-59
2022/07/04 05:35:44;;;;;;;8.98;4.88;;;;;;;14.22;91.51;101935.09;5096469;28;20028;-59
2022/07/04 05:38:10;;;;;;;7.30;4.68;;;;;;;14.25;91.19;101932.44;5095870;28;20028;-60
2022/07/04 05:40:35;;;;;;;12.02;4.72;;;;;;;14.34;91.55;101938.50;5096299;28;20036;-58
2022/07/04 05:43:00;;;;;;;8.90;5.28;;;;;;;14.37;91.29;101947.25;5096137;28;20046;-59
2022/07/04 05:45:26;;;;;;;8.05;4.75;;;;;;;14.42;91.47;101950.69;5096050;28;20484;-58
2022/07/04 05:47:51;;;;;;;9.35;4.93;;;;;;;14.48;91.59;101948.00;5096412;28;20035;-59
2022/07/04 05:50:16;;;;;;;9.32;4.80;;;;;;;14.57;91.59;101947.88;5098040;28;20032;-59
2022/07/04 05:52:41;;;;;;;9.40;4.82;;;;;;;14.66;91.10;101949.53;5116281;28;20032;-59
2022/07/04 05:55:07;;;;;;;10.68;4.57;;;;;;;14.80;90.95;101952.88;5116652;28;20114;-59
2022/07/04 05:57:33;;;;;;;9.15;5.00;;;;;;;14.85;90.76;101940.50;5112739;28;20031;-58
2022/07/04 05:59:58;;;;;;;8.30;4.60;;;;;;;14.88;90.99;101950.16;5115946;28;20465;-59
2022/07/04 06:02:24;;;;;;;7.40;4.13;;;;;;;15.12;89.85;101951.53;5116196;28;20039;-59
2022/07/04 06:04:49;;;;;;;8.30;4.05;;;;;;;15.60;87.90;101950.81;5109530;28;20366;-58
2022/07/04 06:07:14;;;;;;;8.65;3.88;;;;;;;15.81;86.14;101948.72;5115838;28;20031;-59
2022/07/04 06:09:40;;;;;;;8.10;4.18;;;;;;;15.71;86.12;101955.06;5115662;28;20363;-59
2022/07/04 06:12:05;;;;;;;11.27;4.43;;;;;;;15.66;86.47;101956.00;5107054;28;20035;-59
2022/07/04 06:14:31;;;;;;;8.73;4.40;;;;;;;15.58;86.96;101952.63;5111104;28;20051;-60
2022/07/04 06:16:56;;;;;;;9.88;4.40;;;;;;;15.61;87.30;101946.41;5115576;28;20169;-59
2022/07/04 06:19:22;;;;;;;9.20;4.38;;;;;;;15.68;86.60;101949.84;5112691;28;20505;-61
2022/07/04 06:21:47;;;;;;;7.57;4.63;;;;;;;15.80;86.17;101947.84;5106131;28;20020;-59
2022/07/04 06:24:12;;;;;;;7.15;4.03;;;;;;;16.02;84.74;101943.06;5109342;28;20038;-59
2022/07/04 06:26:38;;;;;;;8.38;4.15;;;;;;;16.20;84.11;101953.28;5115877;28;20414;-59
2022/07/04 06:29:03;;;;;;;8.75;4.22;;;;;;;16.38;83.24;101952.06;5115798;28;20020;-60
2022/07/04 06:31:28;;;;;;;5.72;4.18;;;;;;;16.43;82.58;101959.91;5115749;28;20366;-60
2022/07/04 06:36:37;;;;;;;7.80;4.22;;;;;;;16.38;84.08;101951.19;5115825;28;20511;-60
2022/07/04 06:39:03;;;;;;;7.18;3.92;;;;;;;16.28;84.17;101951.34;5115671;28;20024;-60
2022/07/04 06:41:28;;;;;;;7.95;3.90;;;;;;;16.19;83.63;101948.91;5115171;28;20118;-60
2022/07/04 06:43:54;;;;;;;8.23;4.05;;;;;;;16.19;83.22;101955.94;5115763;28;20023;-59
2022/07/04 06:46:20;;;;;;;6.93;3.80;;;;;;;16.24;82.24;101957.63;5115514;28;20104;-59
2022/07/04 06:48:45;;;;;;;6.60;3.85;;;;;;;16.35;81.35;101952.13;5114484;28;20073;-60
2022/07/04 06:51:11;;;;;;;6.85;3.58;;;;;;;16.53;81.12;101961.44;5115140;28;20015;-61
2022/07/04 06:53:36;;;;;;;8.98;3.80;;;;;;;16.69;79.37;101963.78;5114986;28;20450;-60
2022/07/04 06:56:01;;;;;;;6.95;4.20;;;;;;;16.91;77.57;101966.84;5115050;28;20031;-60
2022/07/04 06:58:27;;;;;;;7.00;4.00;;;;;;;17.06;77.87;101960.34;5115238;28;20024;-60
2022/07/04 07:00:52;;;;;;;7.85;3.30;;;;;;;17.25;75.37;101958.16;5104141;28;20040;-60
2022/07/04 07:03:17;;;;;;;5.22;3.67;;;;;;;17.21;75.63;101946.75;5094916;28;20047;-59
2022/07/04 07:05:43;;;;;;;7.22;3.55;;;;;;;17.12;76.28;101949.63;5094779;28;20028;-60
2022/07/04 07:08:08;;;;;;;6.43;3.50;;;;;;;17.10;75.94;101946.16;5094986;28;20032;-60
2022/07/04 07:10:35;;;;;;;5.72;3.40;;;;;;;16.95;76.75;101926.22;5094713;28;20415;-59
2022/07/04 07:13:00;;;;;;;8.90;3.47;;;;;;;17.08;75.99;101940.03;5095029;28;20032;-60
2022/07/04 07:15:25;;;;;;;11.27;4.20;;;;;;;17.08;76.63;101947.09;5094850;28;20114;-59
2022/07/04 07:17:51;;;;;;;8.57;3.47;;;;;;;17.13;77.24;101943.44;5094913;28;20419;-60
2022/07/04 07:20:16;;;;;;;8.90;4.65;;;;;;;17.27;76.25;101945.75;5100154;28;20024;-60
2022/07/04 07:22:42;;;;;;;10.00;4.38;;;;;;;17.33;76.90;101935.88;5100050;28;20083;-60
2022/07/04 07:25:08;;;;;;;7.13;4.55;;;;;;;17.54;75.92;101933.63;5094789;28;20071;-60
2022/07/04 07:27:34;;;;;;;8.40;4.40;;;;;;;17.74;75.22;101937.56;5094717;28;20025;-60
2022/07/04 07:29:59;;;;;;;6.30;4.05;;;;;;;17.80;75.53;101939.19;5094455;28;20039;-59
2022/07/04 07:32:24;;;;;;;7.40;3.97;;;;;;;17.84;76.03;101927.56;5094719;28;20052;-60
2022/07/04 07:34:50;;;;;;;5.75;3.78;;;;;;;17.97;74.63;101949.34;5094833;28;20036;-59
2022/07/04 07:37:17;;;;;;;7.05;3.42;;;;;;;18.02;71.05;101952.69;5094474;28;20325;-59
2022/07/04 07:39:42;;;;;;;6.97;3.70;;;;;;;17.97;72.16;101949.34;5094444;28;20036;-59
2022/07/04 07:42:08;;;;;;;5.35;3.22;;;;;;;17.89;73.30;101948.66;5094589;28;20028;-60
2022/07/04 07:44:33;;;;;;;5.65;2.60;;;;;;;17.79;72.78;101955.97;5097300;28;20028;-60
2022/07/04 07:46:58;;;;;;;6.05;2.55;;;;;;;17.74;70.36;101948.13;5103802;28;20028;-60
2022/07/04 07:49:24;;;;;;;8.18;2.85;;;;;;;17.77;70.90;101941.03;5103971;28;20107;-60
2022/07/04 07:51:49;;;;;;;4.45;2.08;;;;;;;17.75;71.47;101941.06;5102443;28;20476;-60
2022/07/04 07:54:16;;;;;;;6.40;2.53;;;;;;;17.81;71.85;101937.41;5094532;28;20070;-60
2022/07/04 07:56:41;;;;;;;4.60;2.20;;;;;;;17.90;69.38;101948.63;5094428;28;20032;-60
2022/07/04 07:59:07;;;;;;;6.43;2.95;;;;;;;17.77;68.60;101912.78;5094306;28;20039;-59
2022/07/04 08:01:32;;;;;;;3.88;2.05;;;;;;;17.84;67.84;101926.69;5107820;28;20051;-60
2022/07/04 08:06:41;;;;;;;3.67;1.83;;;;;;;17.85;67.60;101926.66;5105457;28;20087;-60
2022/07/04 08:09:07;;;;;;;4.10;1.77;;;;;;;17.87;68.51;101923.97;5112197;28;20024;-59
2022/07/04 08:11:32;;;;;;;6.65;1.90;;;;;;;17.95;68.44;101930.81;5118588;28;20038;-59
2022/07/04 08:13:58;;;;;;;4.57;2.13;;;;;;;17.94;68.49;101926.44;5118123;28;20027;-60
2022/07/04 08:16:23;;;;;;;4.30;1.90;;;;;;;18.01;68.41;101933.28;5118290;28;20028;-60
2022/07/04 08:18:49;;;;;;;4.57;1.70;;;;;;;18.05;68.34;101936.72;5118313;28;20095;-59
2022/07/04 08:21:14;;;;;;;4.45;2.40;;;;;;;18.06;67.38;101934.06;5118466;28;20027;-59
2022/07/04 08:23:41;;;;;;;3.40;1.80;;;;;;;18.12;67.90;101937.44;5118185;28;20046;-59
2022/07/04 08:26:06;;;;;;;3.88;1.80;;;;;;;18.19;66.45;101937.22;5118254;28;20179;-59
2022/07/04 08:28:31;;;;;;;3.63;1.52;;;;;;;18.18;66.75;101948.75;5118187;28;20031;-59
2022/07/04 08:30:57;;;;;;;4.25;1.60;;;;;;;18.27;66.73;101945.84;5117721;28;20050;-59
2022/07/04 08:33:23;;;;;;;4.22;1.70;;;;;;;18.26;66.13;101944.09;5118175;28;20023;-60
2022/07/04 08:35:49;;;;;;;2.90;1.52;;;;;;;18.31;66.23;101947.50;5117822;28;20028;-59
2022/07/04 08:38:18;;;;;;;4.43;2.25;;;;;;;18.38;66.57;101942.88;5117656;28;20046;-60
2022/07/04 08:40:43;;;;;;;5.93;2.42;;;;;;;18.37;65.60;101949.97;5117677;28;20510;-59
2022/07/04 08:43:13;;;;;;;4.00;1.70;;;;;;;18.42;65.75;101941.88;5117929;28;20066;-59
2022/07/04 08:45:40;;;;;;;5.25;2.03;;;;;;;18.49;64.54;101947.91;5117685;28;20106;-60
2022/07/04 08:48:07;;;;;;;5.88;1.75;;;;;;;18.55;65.42;101950.34;5118195;28;20023;-59
2022/07/04 08:50:59;;;;;;;4.40;1.67;;;;;;;18.66;66.11;101950.97;5117399;28;20028;-60
2022/07/04 08:53:30;;;;;;;5.40;2.20;;;;;;;18.75;65.59;101950.69;5118020;28;20024;-60
2022/07/04 08:58:42;;;;;;;4.95;1.80;;;;;;;19.09;65.00;101954.03;5117967;28;20096;-60
2022/07/04 09:01:16;;;;;;;4.07;1.70;;;;;;;19.33;63.55;101952.41;5117510;28;20042;-60
2022/07/04 09:03:43;;;;;;;2.65;1.60;;;;;;;19.60;61.93;101950.66;5117419;28;20420;-60
2022/07/04 09:06:10;;;;;;;4.18;1.90;;;;;;;19.75;62.15;101942.19;5117357;28;20415;-60
2022/07/04 09:08:36;;;;;;;6.28;1.77;;;;;;;20.19;61.54;101946.88;5117511;28;20081;-61
2022/07/04 09:11:02;;;;;;;5.85;1.83;;;;;;;20.93;59.02;101946.78;5115603;28;20377;-59
2022/07/04 09:13:27;;;;;;;5.78;1.98;;;;;;;21.54;56.55;101933.69;5117156;28;20104;-60
2022/07/04 09:15:53;;;;;;;3.30;1.30;;;;;;;22.22;53.62;101944.06;5117133;28;20031;-60
2022/07/04 09:18:27;;;;;;;3.78;1.40;;;;;;;22.76;51.10;101936.28;5116995;28;20032;-60
2022/07/04 09:20:54;;;;;;;3.40;1.35;;;;;;;23.16;48.78;101943.31;5117050;28;20031;-59
2022/07/04 09:23:25;;;;;;;2.28;1.30;;;;;;;23.78;48.04;101932.19;5117086;28;20097;-61
2022/07/04 09:26:13;;;;;;;5.00;1.40;;;;;;;24.68;47.14;101929.22;5116996;28;20074;-58
2022/07/04 09:28:41;;;;;;;4.57;1.17;;;;;;;25.53;46.49;101927.03;5117181;28;20031;-59
2022/07/04 09:31:14;;;;;;;4.75;1.55;;;;;;;25.41;47.36;101939.34;5116363;28;20062;-60
2022/07/04 09:33:57;;;;;;;3.55;1.33;;;;;;;25.41;45.19;101931.31;5116780;28;20032;-61
2022/07/04 09:36:29;;;;;;;3.45;1.00;;;;;;;25.75;44.35;101927.53;5116668;28;20108;-60
2022/07/04 09:39:15;;;;;;;2.15;1.23;;;;;;;24.99;45.95;101939.97;5116715;28;20027;-60
2022/07/04 09:41:50;;;;;;;2.25;1.08;;;;;;;23.88;49.65;101936.13;5116896;28;20034;-61
2022/07/04 09:44:15;;;;;;;3.05;1.20;;;;;;;22.85;48.28;101933.22;5116690;28;20111;-61
2022/07/04 09:46:41;;;;;;;3.53;1.13;;;;;;;22.38;51.51;101928.25;5116682;28;20188;-58
2022/07/04 09:49:06;;;;;;;3.17;1.60;;;;;;;21.96;53.60;101933.66;5116245;28;20118;-61
2022/07/04 09:51:36;;;;;;;2.05;1.00;;;;;;;21.95;54.82;101931.94;5116812;28;20028;-60
2022/07/04 09:54:16;;;;;;;4.97;1.23;;;;;;;22.06;54.58;101926.16;5116664;28;20047;-59
2022/07/04 09:56:44;;;;;;;3.28;0.98;;;;;;;22.25;52.60;101929.72;5116353;28;20073;-60
2022/07/04 09:59:09;;;;;;;2.10;1.10;;;;;;;22.35;53.49;101933.72;5116323;28;20024;-60
2022/07/04 10:01:35;;;;;;;2.50;1.27;;;;;;;22.20;52.92;101934.41;5116129;28;20050;-60
2022/07/04 10:04:03;;;;;;;5.53;1.40;;;;;;;22.22;53.62;101928.06;5116030;28;20035;-61
2022/07/04 10:06:32;;;;;;;3.22;1.38;;;;;;;22.35;54.07;101933.72;5116153;28;20038;-60
2022/07/04 10:09:11;;;;;;;3.65;1.25;;;;;;;22.23;54.70;101934.25;5115987;28;20491;-59
2022/07/04 10:11:38;;;;;;;5.13;1.50;;;;;;;21.96;54.27;101936.31;5115862;28;20036;-59
2022/07/04 10:14:05;;;;;;;7.05;1.58;;;;;;;22.06;56.33;101931.47;5115712;28;20035;-60
2022/07/04 10:16:31;;;;;;;6.03;1.40;;;;;;;22.15;54.44;101931.97;5115712;28;20446;-60
2022/07/04 10:18:57;;;;;;;3.60;1.48;;;;;;;22.17;52.75;101929.19;5115764;28;20035;-60
2022/07/04 10:21:23;;;;;;;4.38;1.40;;;;;;;22.27;54.41;101919.88;5115900;28;20084;-59
2022/07/04 10:23:50;;;;;;;4.95;1.30;;;;;;;22.39;52.35;101924.63;5115739;28;20047;-60
2022/07/04 10:26:19;;;;;;;4.15;1.52;;;;;;;22.44;52.19;101919.09;5115130;28;20035;-60
2022/07/04 10:28:47;;;;;;;5.35;1.50;;;;;;;22.55;51.43;101920.34;5115703;28;20039;-61
2022/07/04 10:31:14;;;;;;;3.58;1.40;;;;;;;22.67;53.66;101910.03;5115398;28;20052;-61
2022/07/04 10:33:40;;;;;;;5.20;1.50;;;;;;;22.83;51.47;101919.97;5115804;28;20032;-62
2022/07/04 10:36:15;;;;;;;7.32;1.70;;;;;;;22.73;50.82;101915.06;5115520;28;20031;-61
2022/07/04 10:38:52;;;;;;;6.18;1.40;;;;;;;22.64;51.26;101907.50;5115539;28;20379;-61
2022/07/04 10:41:20;;;;;;;3.92;1.30;;;;;;;22.71;51.22;101904.47;5115292;28;20048;-61
2022/07/04 10:43:48;;;;;;;4.10;1.48;;;;;;;22.53;49.93;101870.63;5115621;28;20031;-60
2022/07/04 10:46:13;;;;;;;3.08;1.50;;;;;;;22.80;49.13;101909.41;5115938;28;20028;-61
2022/07/04 10:49:13;;;;;;;4.80;1.40;;;;;;;23.19;51.50;101898.63;5115354;28;20347;-60
2022/07/04 10:51:46;;;;;;;4.57;1.23;;;;;;;23.49;49.79;101896.22;5100568;28;20469;-60
2022/07/04 10:54:13;;;;;;;5.10;1.50;;;;;;;23.59;47.77;101897.50;5115540;28;20337;-61
2022/07/04 10:56:49;;;;;;;2.88;1.23;;;;;;;23.86;48.72;101892.56;5114993;28;20418;-60
2022/07/04 10:59:26;;;;;;;4.20;1.30;;;;;;;24.05;46.92;101888.91;5115246;28;20031;-61
2022/07/04 11:02:11;;;;;;;5.32;1.52;;;;;;;24.06;46.88;101888.84;5104720;28;20042;-62
2022/07/04 11:04:47;;;;;;;4.75;1.75;;;;;;;24.01;49.14;101892.69;5094468;28;20426;-62
2022/07/04 11:07:16;;;;;;;4.57;1.60;;;;;;;24.12;46.91;101893.84;5098102;28;20039;-62
2022/07/04 11:09:42;;;;;;;3.72;1.50;;;;;;;24.31;45.58;101882.19;5103815;28;20118;-60
2022/07/04 11:12:08;;;;;;;5.00;1.40;;;;;;;24.66;46.62;101886.47;5103876;28;20052;-59
2022/07/04 11:14:37;;;;;;;2.88;1.30;;;;;;;24.79;46.13;101874.09;5103933;28;20028;-60
2022/07/04 11:17:33;;;;;;;4.13;1.25;;;;;;;24.97;45.63;101882.94;5103420;28;20511;-59
2022/07/04 11:20:02;;;;;;;3.67;1.30;;;;;;;24.80;42.65;101885.69;5103320;28;20034;-61
2022/07/04 11:22:27;;;;;;;2.50;1.25;;;;;;;25.03;43.59;101884.41;5112279;28;20122;-59
2022/07/04 11:24:53;;;;;;;2.80;1.40;;;;;;;24.85;42.56;101881.81;5114989;28;20401;-60
2022/07/04 11:27:21;;;;;;;3.05;1.10;;;;;;;24.65;42.17;101884.75;5115034;28;20334;-60
2022/07/04 11:29:54;;;;;;;5.13;1.45;;;;;;;24.29;43.82;101884.94;5115064;28;20031;-61
2022/07/04 11:32:21;;;;;;;4.70;1.33;;;;;;;24.07;44.37;101887.03;5112661;28;20043;-59
2022/07/04 11:34:48;;;;;;;4.30;1.30;;;;;;;24.16;45.66;101879.38;5102289;28;20040;-59
2022/07/04 11:37:13;;;;;;;3.42;1.30;;;;;;;24.21;47.11;101881.81;5107699;28;20058;-59
2022/07/04 11:39:39;;;;;;;6.00;1.67;;;;;;;23.95;44.09;101881.38;5106998;28;20154;-59